sensor_id;sensor_type;location;lat;lon;timestamp;temperature;humidity
19031;DHT22;9648;51.130;13.978;2023-04-24T00:01:16;9.70;99.90
19031;DHT22;9648;51.130;13.978;2023-04-24T00:03:44;9.70;99.90
19031;DHT22;9648;51.130;13.978;2023-04-24T00:06:11;9.70;99.90
19031;DHT22;9648;51.130;13.978;2023-04-24T00:08:38;9.70;99.90
19031;DHT22;9648;51.130;13.978;2023-04-24T00:11:05;9.70;99.90
19031;DHT22;9648;51.130;13.978;2023-04-24T00:13:32;9.70;99.90
19031;DHT22;9648;51.130;13.978;2023-04-24T00:16:00;9.70;99.90
19031;DHT22;9648;51.130;13.978;2023-04-24T00:18:26;9.70;99.90
19031;DHT22;9648;51.130;13.978;2023-04-24T00:20:53;9.70;99.90
19031;DHT22;9648;51.130;13.978;2023-04-24T00:23:20;9.60;99.90
19031;DHT22;9648;51.130;13.978;2023-04-24T00:25:49;9.60;99.90
19031;DHT22;9648;51.130;13.978;2023-04-24T00:28:19;9.60;99.90
19031;DHT22;9648;51.130;13.978;2023-04-24T00:30:46;9.60;99.90
19031;DHT22;9648;51.130;13.978;2023-04-24T00:33:17;9.70;99.90
19031;DHT22;9648;51.130;13.978;2023-04-24T00:35:44;9.70;99.90
19031;DHT22;9648;51.130;13.978;2023-04-24T00:38:14;9.70;99.90
19031;DHT22;9648;51.130;13.978;2023-04-24T00:40:40;9.70;99.90
19031;DHT22;9648;51.130;13.978;2023-04-24T00:43:11;9.70;99.90
19031;DHT22;9648;51.130;13.978;2023-04-24T00:45:38;9.70;99.90
19031;DHT22;9648;51.130;13.978;2023-04-24T00:48:04;9.70;99.90
19031;DHT22;9648;51.130;13.978;2023-04-24T00:50:35;9.70;99.90
19031;DHT22;9648;51.130;13.978;2023-04-24T00:53:02;9.70;99.90
19031;DHT22;9648;51.130;13.978;2023-04-24T00:55:29;9.70;99.90
19031;DHT22;9648;51.130;13.978;2023-04-24T00:57:58;9.70;99.90
19031;DHT22;9648;51.130;13.978;2023-04-24T01:00:25;9.70;99.90
19031;DHT22;9648;51.130;13.978;2023-04-24T01:02:52;9.70;99.90
19031;DHT22;9648;51.130;13.978;2023-04-24T01:05:19;9.80;99.90
19031;DHT22;9648;51.130;13.978;2023-04-24T01:07:50;9.80;99.90
19031;DHT22;9648;51.130;13.978;2023-04-24T01:10:20;9.80;99.90
19031;DHT22;9648;51.130;13.978;2023-04-24T01:12:46;9.90;99.90
19031;DHT22;9648;51.130;13.978;2023-04-24T01:15:13;9.90;99.90
19031;DHT22;9648;51.130;13.978;2023-04-24T01:17:40;9.90;99.90
19031;DHT22;9648;51.130;13.978;2023-04-24T01:20:08;9.90;99.90
19031;DHT22;9648;51.130;13.978;2023-04-24T01:22:37;9.90;99.90
19031;DHT22;9648;51.130;13.978;2023-04-24T01:25:04;10.00;99.90
19031;DHT22;9648;51.130;13.978;2023-04-24T01:27:32;10.00;99.90
19031;DHT22;9648;51.130;13.978;2023-04-24T01:29:58;10.00;99.90
19031;DHT22;9648;51.130;13.978;2023-04-24T01:32:25;10.10;99.90
19031;DHT22;9648;51.130;13.978;2023-04-24T01:34:55;10.10;99.90
19031;DHT22;9648;51.130;13.978;2023-04-24T01:37:22;10.10;99.90
19031;DHT22;9648;51.130;13.978;2023-04-24T01:39:50;10.10;99.90
19031;DHT22;9648;51.130;13.978;2023-04-24T01:42:20;10.10;99.90
19031;DHT22;9648;51.130;13.978;2023-04-24T01:44:47;10.20;99.90
19031;DHT22;9648;51.130;13.978;2023-04-24T01:47:17;10.20;99.90
19031;DHT22;9648;51.130;13.978;2023-04-24T01:49:45;10.20;99.90
19031;DHT22;9648;51.130;13.978;2023-04-24T01:52:14;10.20;99.90
19031;DHT22;9648;51.130;13.978;2023-04-24T01:54:41;10.20;99.90
19031;DHT22;9648;51.130;13.978;2023-04-24T01:57:09;10.20;99.90
19031;DHT22;9648;51.130;13.978;2023-04-24T01:59:36;10.20;99.90
19031;DHT22;9648;51.130;13.978;2023-04-24T02:02:06;10.20;99.90
19031;DHT22;9648;51.130;13.978;2023-04-24T02:04:33;10.30;99.90
19031;DHT22;9648;51.130;13.978;2023-04-24T02:07:02;10.30;99.90
19031;DHT22;9648;51.130;13.978;2023-04-24T02:09:32;10.30;99.90
19031;DHT22;9648;51.130;13.978;2023-04-24T02:11:59;10.30;99.90
19031;DHT22;9648;51.130;13.978;2023-04-24T02:14:27;10.30;99.90
19031;DHT22;9648;51.130;13.978;2023-04-24T02:16:54;10.40;99.90
19031;DHT22;9648;51.130;13.978;2023-04-24T02:19:21;10.40;99.90
19031;DHT22;9648;51.130;13.978;2023-04-24T02:21:50;10.30;99.90
19031;DHT22;9648;51.130;13.978;2023-04-24T02:24:23;10.30;99.90
19031;DHT22;9648;51.130;13.978;2023-04-24T02:26:50;10.30;99.90
19031;DHT22;9648;51.130;13.978;2023-04-24T02:29:19;10.30;99.90
19031;DHT22;9648;51.130;13.978;2023-04-24T02:31:47;10.30;99.90
19031;DHT22;9648;51.130;13.978;2023-04-24T02:34:14;10.30;99.90
19031;DHT22;9648;51.130;13.978;2023-04-24T02:36:41;10.30;99.90
19031;DHT22;9648;51.130;13.978;2023-04-24T02:39:08;10.30;99.90
19031;DHT22;9648;51.130;13.978;2023-04-24T02:41:35;10.30;99.90
19031;DHT22;9648;51.130;13.978;2023-04-24T02:44:02;10.30;99.90
19031;DHT22;9648;51.130;13.978;2023-04-24T02:46:29;10.30;99.90
19031;DHT22;9648;51.130;13.978;2023-04-24T02:48:57;10.30;99.90
19031;DHT22;9648;51.130;13.978;2023-04-24T02:51:24;10.30;99.90
19031;DHT22;9648;51.130;13.978;2023-04-24T02:53:50;10.30;99.90
19031;DHT22;9648;51.130;13.978;2023-04-24T02:56:20;10.30;99.90
19031;DHT22;9648;51.130;13.978;2023-04-24T02:58:47;10.20;99.90
19031;DHT22;9648;51.130;13.978;2023-04-24T03:01:17;10.30;99.90
19031;DHT22;9648;51.130;13.978;2023-04-24T03:03:44;10.30;99.90
19031;DHT22;9648;51.130;13.978;2023-04-24T03:06:12;10.30;99.90
19031;DHT22;9648;51.130;13.978;2023-04-24T03:08:39;10.30;99.90
19031;DHT22;9648;51.130;13.978;2023-04-24T03:11:05;10.30;99.90
19031;DHT22;9648;51.130;13.978;2023-04-24T03:13:32;10.40;99.90
19031;DHT22;9648;51.130;13.978;2023-04-24T03:15:59;10.40;99.90
19031;DHT22;9648;51.130;13.978;2023-04-24T03:18:25;10.40;99.90
19031;DHT22;9648;51.130;13.978;2023-04-24T03:20:55;10.40;99.90
19031;DHT22;9648;51.130;13.978;2023-04-24T03:23:23;10.40;99.90
19031;DHT22;9648;51.130;13.978;2023-04-24T03:25:50;10.40;99.90
19031;DHT22;9648;51.130;13.978;2023-04-24T03:28:19;10.40;99.90
19031;DHT22;9648;51.130;13.978;2023-04-24T03:30:46;10.30;99.90
19031;DHT22;9648;51.130;13.978;2023-04-24T03:33:16;10.30;99.90
19031;DHT22;9648;51.130;13.978;2023-04-24T03:35:43;10.30;99.90
19031;DHT22;9648;51.130;13.978;2023-04-24T03:38:16;10.30;99.90
19031;DHT22;9648;51.130;13.978;2023-04-24T03:40:44;10.30;99.90
19031;DHT22;9648;51.130;13.978;2023-04-24T03:43:11;10.30;99.90
19031;DHT22;9648;51.130;13.978;2023-04-24T03:45:38;10.30;99.90
19031;DHT22;9648;51.130;13.978;2023-04-24T03:48:05;10.30;99.90
19031;DHT22;9648;51.130;13.978;2023-04-24T03:50:31;10.30;99.90
19031;DHT22;9648;51.130;13.978;2023-04-24T03:53:01;10.30;99.90
19031;DHT22;9648;51.130;13.978;2023-04-24T03:55:29;10.40;99.90
19031;DHT22;9648;51.130;13.978;2023-04-24T03:58:00;10.40;99.90
19031;DHT22;9648;51.130;13.978;2023-04-24T04:00:27;10.40;99.90
19031;DHT22;9648;51.130;13.978;2023-04-24T04:02:54;10.40;99.90
19031;DHT22;9648;51.130;13.978;2023-04-24T04:05:20;10.40;99.90
19031;DHT22;9648;51.130;13.978;2023-04-24T04:07:50;10.40;99.90
19031;DHT22;9648;51.130;13.978;2023-04-24T04:10:17;10.50;99.90
19031;DHT22;9648;51.130;13.978;2023-04-24T04:12:44;10.40;99.90
19031;DHT22;9648;51.130;13.978;2023-04-24T04:15:12;10.50;99.90
19031;DHT22;9648;51.130;13.978;2023-04-24T04:17:39;10.60;99.90
19031;DHT22;9648;51.130;13.978;2023-04-24T04:20:06;10.70;99.90
19031;DHT22;9648;51.130;13.978;2023-04-24T04:22:35;10.70;99.90
19031;DHT22;9648;51.130;13.978;2023-04-24T04:25:05;10.90;99.90
19031;DHT22;9648;51.130;13.978;2023-04-24T04:27:33;11.00;99.90
19031;DHT22;9648;51.130;13.978;2023-04-24T04:30:00;11.10;99.90
19031;DHT22;9648;51.130;13.978;2023-04-24T04:32:34;11.30;99.90
19031;DHT22;9648;51.130;13.978;2023-04-24T04:35:00;11.30;99.90
19031;DHT22;9648;51.130;13.978;2023-04-24T04:37:28;11.40;99.90
19031;DHT22;9648;51.130;13.978;2023-04-24T04:39:55;11.40;99.90
19031;DHT22;9648;51.130;13.978;2023-04-24T04:42:23;11.60;99.90
19031;DHT22;9648;51.130;13.978;2023-04-24T04:44:50;11.70;99.90
19031;DHT22;9648;51.130;13.978;2023-04-24T04:47:21;11.70;99.90
19031;DHT22;9648;51.130;13.978;2023-04-24T04:49:52;11.80;99.90
19031;DHT22;9648;51.130;13.978;2023-04-24T04:52:19;11.90;99.90
19031;DHT22;9648;51.130;13.978;2023-04-24T04:54:50;11.90;99.90
19031;DHT22;9648;51.130;13.978;2023-04-24T04:57:16;12.00;99.90
19031;DHT22;9648;51.130;13.978;2023-04-24T04:59:43;12.10;99.90
19031;DHT22;9648;51.130;13.978;2023-04-24T05:02:10;12.10;99.90
19031;DHT22;9648;51.130;13.978;2023-04-24T05:04:37;12.20;99.90
19031;DHT22;9648;51.130;13.978;2023-04-24T05:07:05;12.20;99.90
19031;DHT22;9648;51.130;13.978;2023-04-24T05:09:32;12.30;99.90
19031;DHT22;9648;51.130;13.978;2023-04-24T05:11:58;12.30;99.90
19031;DHT22;9648;51.130;13.978;2023-04-24T05:14:25;12.30;99.90
19031;DHT22;9648;51.130;13.978;2023-04-24T05:16:52;12.40;99.90
19031;DHT22;9648;51.130;13.978;2023-04-24T05:19:19;12.50;99.90
19031;DHT22;9648;51.130;13.978;2023-04-24T05:21:46;12.50;99.90
19031;DHT22;9648;51.130;13.978;2023-04-24T05:24:13;12.50;99.90
19031;DHT22;9648;51.130;13.978;2023-04-24T05:26:40;12.60;99.90
19031;DHT22;9648;51.130;13.978;2023-04-24T05:29:10;12.60;99.90
19031;DHT22;9648;51.130;13.978;2023-04-24T05:31:37;12.60;99.90
19031;DHT22;9648;51.130;13.978;2023-04-24T05:34:13;12.70;99.90
19031;DHT22;9648;51.130;13.978;2023-04-24T05:36:41;12.70;99.90
19031;DHT22;9648;51.130;13.978;2023-04-24T05:39:08;12.80;99.90
19031;DHT22;9648;51.130;13.978;2023-04-24T05:41:36;12.80;99.90
19031;DHT22;9648;51.130;13.978;2023-04-24T05:44:06;12.80;99.90
19031;DHT22;9648;51.130;13.978;2023-04-24T05:46:32;12.80;99.90
19031;DHT22;9648;51.130;13.978;2023-04-24T05:48:59;12.80;99.90
19031;DHT22;9648;51.130;13.978;2023-04-24T05:51:26;12.80;99.90
19031;DHT22;9648;51.130;13.978;2023-04-24T05:53:52;12.80;99.90
19031;DHT22;9648;51.130;13.978;2023-04-24T05:56:20;12.90;99.90
19031;DHT22;9648;51.130;13.978;2023-04-24T05:58:48;13.00;99.90
19031;DHT22;9648;51.130;13.978;2023-04-24T06:01:18;13.00;99.90
19031;DHT22;9648;51.130;13.978;2023-04-24T06:03:45;13.00;99.90
19031;DHT22;9648;51.130;13.978;2023-04-24T06:06:11;13.10;99.90
19031;DHT22;9648;51.130;13.978;2023-04-24T06:08:38;13.20;99.90
19031;DHT22;9648;51.130;13.978;2023-04-24T06:11:05;13.30;99.90
19031;DHT22;9648;51.130;13.978;2023-04-24T06:13:31;13.40;99.90
19031;DHT22;9648;51.130;13.978;2023-04-24T06:16:03;13.40;99.90
19031;DHT22;9648;51.130;13.978;2023-04-24T06:18:30;13.40;99.90
19031;DHT22;9648;51.130;13.978;2023-04-24T06:20:56;13.50;99.90
19031;DHT22;9648;51.130;13.978;2023-04-24T06:23:23;13.50;99.90
19031;DHT22;9648;51.130;13.978;2023-04-24T06:25:53;13.60;99.90
19031;DHT22;9648;51.130;13.978;2023-04-24T06:28:23;13.70;99.90
19031;DHT22;9648;51.130;13.978;2023-04-24T06:30:50;13.80;99.90
19031;DHT22;9648;51.130;13.978;2023-04-24T06:33:18;13.90;99.90
19031;DHT22;9648;51.130;13.978;2023-04-24T06:35:44;14.00;99.90
19031;DHT22;9648;51.130;13.978;2023-04-24T06:38:11;14.10;99.90
19031;DHT22;9648;51.130;13.978;2023-04-24T06:40:38;14.10;99.90
19031;DHT22;9648;51.130;13.978;2023-04-24T06:43:04;14.10;99.90
19031;DHT22;9648;51.130;13.978;2023-04-24T06:45:31;14.10;99.90
19031;DHT22;9648;51.130;13.978;2023-04-24T06:48:01;14.10;99.90
19031;DHT22;9648;51.130;13.978;2023-04-24T06:50:29;14.20;99.90
19031;DHT22;9648;51.130;13.978;2023-04-24T06:52:56;14.10;99.90
19031;DHT22;9648;51.130;13.978;2023-04-24T06:55:23;14.00;99.90
19031;DHT22;9648;51.130;13.978;2023-04-24T06:57:49;14.00;99.90
19031;DHT22;9648;51.130;13.978;2023-04-24T07:00:16;14.00;99.90
19031;DHT22;9648;51.130;13.978;2023-04-24T07:02:43;14.00;99.90
19031;DHT22;9648;51.130;13.978;2023-04-24T07:05:13;14.10;99.90
19031;DHT22;9648;51.130;13.978;2023-04-24T07:07:42;14.20;99.90
19031;DHT22;9648;51.130;13.978;2023-04-24T07:10:09;14.20;99.90
19031;DHT22;9648;51.130;13.978;2023-04-24T07:12:36;14.20;99.90
19031;DHT22;9648;51.130;13.978;2023-04-24T07:15:03;14.20;99.90
19031;DHT22;9648;51.130;13.978;2023-04-24T07:17:30;14.30;99.90
19031;DHT22;9648;51.130;13.978;2023-04-24T07:20:00;14.40;99.90
19031;DHT22;9648;51.130;13.978;2023-04-24T07:22:26;14.40;99.90
19031;DHT22;9648;51.130;13.978;2023-04-24T07:24:54;14.50;99.90
19031;DHT22;9648;51.130;13.978;2023-04-24T07:27:21;14.50;99.90
19031;DHT22;9648;51.130;13.978;2023-04-24T07:29:48;14.50;99.90
19031;DHT22;9648;51.130;13.978;2023-04-24T07:32:17;14.50;99.90
19031;DHT22;9648;51.130;13.978;2023-04-24T07:34:44;14.60;99.90
19031;DHT22;9648;51.130;13.978;2023-04-24T07:37:14;14.80;99.90
19031;DHT22;9648;51.130;13.978;2023-04-24T07:39:41;14.80;99.90
19031;DHT22;9648;51.130;13.978;2023-04-24T07:42:09;14.90;99.90
19031;DHT22;9648;51.130;13.978;2023-04-24T07:44:39;15.00;99.90
19031;DHT22;9648;51.130;13.978;2023-04-24T07:47:06;15.00;99.90
19031;DHT22;9648;51.130;13.978;2023-04-24T07:49:33;15.00;99.90
19031;DHT22;9648;51.130;13.978;2023-04-24T07:52:00;15.10;99.90
19031;DHT22;9648;51.130;13.978;2023-04-24T07:54:27;15.30;99.90
19031;DHT22;9648;51.130;13.978;2023-04-24T07:56:58;15.40;99.90
19031;DHT22;9648;51.130;13.978;2023-04-24T07:59:29;15.50;99.90
19031;DHT22;9648;51.130;13.978;2023-04-24T08:01:56;15.60;99.90
19031;DHT22;9648;51.130;13.978;2023-04-24T08:04:23;15.70;99.90
19031;DHT22;9648;51.130;13.978;2023-04-24T08:06:49;15.80;99.90
19031;DHT22;9648;51.130;13.978;2023-04-24T08:09:19;15.90;99.90
19031;DHT22;9648;51.130;13.978;2023-04-24T08:11:46;16.00;99.90
19031;DHT22;9648;51.130;13.978;2023-04-24T08:14:16;16.10;99.90
19031;DHT22;9648;51.130;13.978;2023-04-24T08:16:44;16.30;99.90
19031;DHT22;9648;51.130;13.978;2023-04-24T08:19:13;16.40;99.90
19031;DHT22;9648;51.130;13.978;2023-04-24T08:21:40;16.40;99.90
19031;DHT22;9648;51.130;13.978;2023-04-24T08:24:07;16.50;99.90
19031;DHT22;9648;51.130;13.978;2023-04-24T08:26:34;16.50;99.90
19031;DHT22;9648;51.130;13.978;2023-04-24T08:29:04;16.50;99.90
19031;DHT22;9648;51.130;13.978;2023-04-24T08:31:32;16.50;99.90
19031;DHT22;9648;51.130;13.978;2023-04-24T08:34:00;16.40;99.90
19031;DHT22;9648;51.130;13.978;2023-04-24T08:36:27;16.30;99.90
19031;DHT22;9648;51.130;13.978;2023-04-24T08:38:56;16.30;99.90
19031;DHT22;9648;51.130;13.978;2023-04-24T08:41:23;16.20;99.90
19031;DHT22;9648;51.130;13.978;2023-04-24T08:43:51;16.10;99.90
19031;DHT22;9648;51.130;13.978;2023-04-24T08:46:19;16.00;99.90
19031;DHT22;9648;51.130;13.978;2023-04-24T08:48:46;16.00;99.90
19031;DHT22;9648;51.130;13.978;2023-04-24T08:51:15;15.90;99.90
19031;DHT22;9648;51.130;13.978;2023-04-24T08:53:42;15.80;99.90
19031;DHT22;9648;51.130;13.978;2023-04-24T08:56:09;15.80;99.90
19031;DHT22;9648;51.130;13.978;2023-04-24T08:58:38;15.70;99.90
19031;DHT22;9648;51.130;13.978;2023-04-24T09:01:05;15.50;99.90
19031;DHT22;9648;51.130;13.978;2023-04-24T09:03:33;15.50;99.90
19031;DHT22;9648;51.130;13.978;2023-04-24T09:06:04;15.30;99.90
19031;DHT22;9648;51.130;13.978;2023-04-24T09:08:34;15.20;99.90
19031;DHT22;9648;51.130;13.978;2023-04-24T09:11:05;15.10;99.90
19031;DHT22;9648;51.130;13.978;2023-04-24T09:13:33;15.00;99.90
19031;DHT22;9648;51.130;13.978;2023-04-24T09:16:00;14.90;99.90
19031;DHT22;9648;51.130;13.978;2023-04-24T09:18:27;14.80;99.90
19031;DHT22;9648;51.130;13.978;2023-04-24T09:20:57;14.70;99.90
19031;DHT22;9648;51.130;13.978;2023-04-24T09:23:26;14.50;99.90
19031;DHT22;9648;51.130;13.978;2023-04-24T09:25:56;14.40;99.90
19031;DHT22;9648;51.130;13.978;2023-04-24T09:28:26;14.30;99.90
19031;DHT22;9648;51.130;13.978;2023-04-24T09:31:05;14.20;99.90
19031;DHT22;9648;51.130;13.978;2023-04-24T09:33:32;14.30;99.90
19031;DHT22;9648;51.130;13.978;2023-04-24T09:36:03;14.40;99.90
19031;DHT22;9648;51.130;13.978;2023-04-24T09:38:34;14.60;99.90
19031;DHT22;9648;51.130;13.978;2023-04-24T09:41:05;14.90;99.90
19031;DHT22;9648;51.130;13.978;2023-04-24T09:43:32;15.10;99.90
19031;DHT22;9648;51.130;13.978;2023-04-24T09:46:04;15.30;99.90
19031;DHT22;9648;51.130;13.978;2023-04-24T09:48:35;15.30;99.90
19031;DHT22;9648;51.130;13.978;2023-04-24T09:51:05;15.30;99.90
19031;DHT22;9648;51.130;13.978;2023-04-24T09:53:36;15.40;99.90
19031;DHT22;9648;51.130;13.978;2023-04-24T09:56:07;15.60;99.90
19031;DHT22;9648;51.130;13.978;2023-04-24T09:58:34;15.60;99.90
19031;DHT22;9648;51.130;13.978;2023-04-24T10:01:01;15.80;99.90
19031;DHT22;9648;51.130;13.978;2023-04-24T10:03:30;15.80;99.90
19031;DHT22;9648;51.130;13.978;2023-04-24T10:06:00;15.80;99.90
19031;DHT22;9648;51.130;13.978;2023-04-24T10:08:33;15.80;99.90
19031;DHT22;9648;51.130;13.978;2023-04-24T10:11:00;15.70;99.90
19031;DHT22;9648;51.130;13.978;2023-04-24T10:13:29;15.60;99.90
19031;DHT22;9648;51.130;13.978;2023-04-24T10:16:00;15.50;99.90
19031;DHT22;9648;51.130;13.978;2023-04-24T10:18:27;15.60;99.90
19031;DHT22;9648;51.130;13.978;2023-04-24T10:20:54;15.70;99.90
19031;DHT22;9648;51.130;13.978;2023-04-24T10:23:22;15.70;99.90
19031;DHT22;9648;51.130;13.978;2023-04-24T10:25:52;16.00;99.90
19031;DHT22;9648;51.130;13.978;2023-04-24T10:28:20;16.20;99.90
19031;DHT22;9648;51.130;13.978;2023-04-24T10:30:49;16.20;99.90
19031;DHT22;9648;51.130;13.978;2023-04-24T10:33:17;16.20;99.90
19031;DHT22;9648;51.130;13.978;2023-04-24T10:35:46;16.30;99.90
19031;DHT22;9648;51.130;13.978;2023-04-24T10:38:22;16.30;99.90
19031;DHT22;9648;51.130;13.978;2023-04-24T10:40:50;16.30;99.90
19031;DHT22;9648;51.130;13.978;2023-04-24T10:43:18;16.40;99.90
19031;DHT22;9648;51.130;13.978;2023-04-24T10:48:52;16.50;99.90
19031;DHT22;9648;51.130;13.978;2023-04-24T10:51:22;16.80;99.90
19031;DHT22;9648;51.130;13.978;2023-04-24T10:53:50;16.90;99.90
19031;DHT22;9648;51.130;13.978;2023-04-24T10:56:17;17.00;99.90
19031;DHT22;9648;51.130;13.978;2023-04-24T10:58:45;17.10;99.90
19031;DHT22;9648;51.130;13.978;2023-04-24T11:01:24;17.00;99.90
19031;DHT22;9648;51.130;13.978;2023-04-24T11:03:56;17.00;99.90
19031;DHT22;9648;51.130;13.978;2023-04-24T11:06:29;16.90;99.90
19031;DHT22;9648;51.130;13.978;2023-04-24T11:09:03;16.90;99.90
19031;DHT22;9648;51.130;13.978;2023-04-24T11:11:30;16.80;99.90
19031;DHT22;9648;51.130;13.978;2023-04-24T11:14:07;16.80;99.90
19031;DHT22;9648;51.130;13.978;2023-04-24T11:16:38;16.80;99.90
19031;DHT22;9648;51.130;13.978;2023-04-24T11:19:08;16.90;99.90
19031;DHT22;9648;51.130;13.978;2023-04-24T11:21:42;16.90;99.90
19031;DHT22;9648;51.130;13.978;2023-04-24T11:24:29;16.90;99.90
19031;DHT22;9648;51.130;13.978;2023-04-24T11:27:05;16.90;99.90
19031;DHT22;9648;51.130;13.978;2023-04-24T11:29:41;16.90;99.90
19031;DHT22;9648;51.130;13.978;2023-04-24T11:32:15;16.90;99.90
19031;DHT22;9648;51.130;13.978;2023-04-24T11:34:47;16.80;99.90
19031;DHT22;9648;51.130;13.978;2023-04-24T11:37:14;16.70;99.90
19031;DHT22;9648;51.130;13.978;2023-04-24T11:39:41;16.70;99.90
19031;DHT22;9648;51.130;13.978;2023-04-24T11:42:09;16.60;99.90
19031;DHT22;9648;51.130;13.978;2023-04-24T11:44:36;16.40;99.90
19031;DHT22;9648;51.130;13.978;2023-04-24T11:47:02;16.40;99.90
19031;DHT22;9648;51.130;13.978;2023-04-24T11:49:32;16.40;99.90
19031;DHT22;9648;51.130;13.978;2023-04-24T11:52:01;16.60;99.90
19031;DHT22;9648;51.130;13.978;2023-04-24T11:54:28;16.80;99.90
19031;DHT22;9648;51.130;13.978;2023-04-24T11:56:56;17.10;99.90
19031;DHT22;9648;51.130;13.978;2023-04-24T11:59:23;17.20;99.90
19031;DHT22;9648;51.130;13.978;2023-04-24T12:01:50;17.20;99.90
19031;DHT22;9648;51.130;13.978;2023-04-24T12:04:19;17.00;99.90
19031;DHT22;9648;51.130;13.978;2023-04-24T12:07:00;16.80;99.90
19031;DHT22;9648;51.130;13.978;2023-04-24T12:09:27;16.70;99.90
19031;DHT22;9648;51.130;13.978;2023-04-24T12:11:54;16.50;99.90
19031;DHT22;9648;51.130;13.978;2023-04-24T12:14:22;16.50;99.90
19031;DHT22;9648;51.130;13.978;2023-04-24T12:16:49;16.70;99.90
19031;DHT22;9648;51.130;13.978;2023-04-24T12:19:21;17.00;99.90
19031;DHT22;9648;51.130;13.978;2023-04-24T12:22:01;17.20;99.90
19031;DHT22;9648;51.130;13.978;2023-04-24T12:24:28;17.40;99.90
19031;DHT22;9648;51.130;13.978;2023-04-24T12:26:55;17.40;99.90
19031;DHT22;9648;51.130;13.978;2023-04-24T12:29:23;17.30;99.90
19031;DHT22;9648;51.130;13.978;2023-04-24T12:31:51;17.00;99.90
19031;DHT22;9648;51.130;13.978;2023-04-24T12:34:21;16.70;99.90
19031;DHT22;9648;51.130;13.978;2023-04-24T12:36:48;16.30;99.90
19031;DHT22;9648;51.130;13.978;2023-04-24T12:39:17;15.90;99.90
19031;DHT22;9648;51.130;13.978;2023-04-24T12:41:54;15.50;99.90
19031;DHT22;9648;51.130;13.978;2023-04-24T12:44:29;15.30;99.90
19031;DHT22;9648;51.130;13.978;2023-04-24T12:46:56;15.20;99.90
19031;DHT22;9648;51.130;13.978;2023-04-24T12:49:22;15.20;99.90
19031;DHT22;9648;51.130;13.978;2023-04-24T12:51:49;15.30;99.90
19031;DHT22;9648;51.130;13.978;2023-04-24T12:54:17;15.40;99.90
19031;DHT22;9648;51.130;13.978;2023-04-24T12:56:44;15.60;99.90
19031;DHT22;9648;51.130;13.978;2023-04-24T12:59:14;15.80;99.90
19031;DHT22;9648;51.130;13.978;2023-04-24T13:01:41;15.90;99.90
19031;DHT22;9648;51.130;13.978;2023-04-24T13:04:08;16.10;99.90
19031;DHT22;9648;51.130;13.978;2023-04-24T13:06:35;16.20;97.30
19031;DHT22;9648;51.130;13.978;2023-04-24T13:09:01;16.20;97.10
19031;DHT22;9648;51.130;13.978;2023-04-24T13:11:32;16.20;96.30
19031;DHT22;9648;51.130;13.978;2023-04-24T13:13:59;16.10;97.90
19031;DHT22;9648;51.130;13.978;2023-04-24T13:16:26;16.40;99.70
19031;DHT22;9648;51.130;13.978;2023-04-24T13:18:53;16.70;99.90
19031;DHT22;9648;51.130;13.978;2023-04-24T13:21:19;17.00;90.80
19031;DHT22;9648;51.130;13.978;2023-04-24T13:23:49;17.10;92.20
19031;DHT22;9648;51.130;13.978;2023-04-24T13:26:17;17.20;90.80
19031;DHT22;9648;51.130;13.978;2023-04-24T13:28:45;17.30;91.10
19031;DHT22;9648;51.130;13.978;2023-04-24T13:31:12;17.20;77.40
19031;DHT22;9648;51.130;13.978;2023-04-24T13:33:39;17.00;78.30
19031;DHT22;9648;51.130;13.978;2023-04-24T13:36:06;16.90;78.80
19031;DHT22;9648;51.130;13.978;2023-04-24T13:38:35;16.60;75.50
19031;DHT22;9648;51.130;13.978;2023-04-24T13:41:02;16.50;77.50
19031;DHT22;9648;51.130;13.978;2023-04-24T13:43:29;16.50;74.90
19031;DHT22;9648;51.130;13.978;2023-04-24T13:45:57;16.50;87.00
19031;DHT22;9648;51.130;13.978;2023-04-24T13:48:24;16.40;70.80
19031;DHT22;9648;51.130;13.978;2023-04-24T13:50:51;16.30;72.80
19031;DHT22;9648;51.130;13.978;2023-04-24T13:53:18;16.40;79.50
19031;DHT22;9648;51.130;13.978;2023-04-24T13:55:44;16.80;83.90
19031;DHT22;9648;51.130;13.978;2023-04-24T13:58:11;17.20;71.20
19031;DHT22;9648;51.130;13.978;2023-04-24T14:00:38;17.40;71.60
19031;DHT22;9648;51.130;13.978;2023-04-24T14:03:06;17.60;68.70
19031;DHT22;9648;51.130;13.978;2023-04-24T14:05:33;17.60;68.50
19031;DHT22;9648;51.130;13.978;2023-04-24T14:08:00;17.70;63.30
19031;DHT22;9648;51.130;13.978;2023-04-24T14:10:26;17.70;68.40
19031;DHT22;9648;51.130;13.978;2023-04-24T14:12:53;17.70;66.10
19031;DHT22;9648;51.130;13.978;2023-04-24T14:15:20;17.40;63.30
19031;DHT22;9648;51.130;13.978;2023-04-24T14:17:50;17.20;60.30
19031;DHT22;9648;51.130;13.978;2023-04-24T14:20:18;16.70;56.50
19031;DHT22;9648;51.130;13.978;2023-04-24T14:22:45;16.30;57.10
19031;DHT22;9648;51.130;13.978;2023-04-24T14:25:12;16.10;59.20
19031;DHT22;9648;51.130;13.978;2023-04-24T14:27:38;15.90;61.50
19031;DHT22;9648;51.130;13.978;2023-04-24T14:30:06;15.70;58.90
19031;DHT22;9648;51.130;13.978;2023-04-24T14:32:37;15.60;56.90
19031;DHT22;9648;51.130;13.978;2023-04-24T14:35:05;15.50;59.00
19031;DHT22;9648;51.130;13.978;2023-04-24T14:37:33;15.70;57.70
19031;DHT22;9648;51.130;13.978;2023-04-24T14:40:01;16.10;59.70
19031;DHT22;9648;51.130;13.978;2023-04-24T14:42:28;16.50;59.10
19031;DHT22;9648;51.130;13.978;2023-04-24T14:44:58;16.90;58.30
19031;DHT22;9648;51.130;13.978;2023-04-24T14:47:27;17.10;55.80
19031;DHT22;9648;51.130;13.978;2023-04-24T14:49:54;17.30;54.80
19031;DHT22;9648;51.130;13.978;2023-04-24T14:52:21;17.30;52.90
19031;DHT22;9648;51.130;13.978;2023-04-24T14:54:50;17.20;55.10
19031;DHT22;9648;51.130;13.978;2023-04-24T14:57:17;17.00;53.70
19031;DHT22;9648;51.130;13.978;2023-04-24T14:59:43;16.90;53.60
19031;DHT22;9648;51.130;13.978;2023-04-24T15:02:13;16.70;55.00
19031;DHT22;9648;51.130;13.978;2023-04-24T15:04:40;16.50;54.40
19031;DHT22;9648;51.130;13.978;2023-04-24T15:07:10;16.60;54.70
19031;DHT22;9648;51.130;13.978;2023-04-24T15:09:36;16.80;58.80
19031;DHT22;9648;51.130;13.978;2023-04-24T15:12:07;17.00;57.10
19031;DHT22;9648;51.130;13.978;2023-04-24T15:14:38;17.10;53.80
19031;DHT22;9648;51.130;13.978;2023-04-24T15:17:04;16.90;52.00
19031;DHT22;9648;51.130;13.978;2023-04-24T15:19:34;16.60;51.80
19031;DHT22;9648;51.130;13.978;2023-04-24T15:22:01;16.40;53.40
19031;DHT22;9648;51.130;13.978;2023-04-24T15:24:27;16.40;56.40
19031;DHT22;9648;51.130;13.978;2023-04-24T15:26:54;16.30;56.30
19031;DHT22;9648;51.130;13.978;2023-04-24T15:29:22;16.40;57.80
19031;DHT22;9648;51.130;13.978;2023-04-24T15:31:49;16.40;56.60
19031;DHT22;9648;51.130;13.978;2023-04-24T15:34:16;16.50;56.90
19031;DHT22;9648;51.130;13.978;2023-04-24T15:36:43;16.40;57.80
19031;DHT22;9648;51.130;13.978;2023-04-24T15:39:10;16.30;56.00
19031;DHT22;9648;51.130;13.978;2023-04-24T15:41:37;16.10;60.00